sensor_id;sensor_type;location;lat;lon;timestamp;temperature;humidity
5176;DHT22;2607;50.934;6.934;2023-07-24T00:00:40;19.20;99.90
5176;DHT22;2607;50.934;6.934;2023-07-24T00:03:06;19.20;99.90
5176;DHT22;2607;50.934;6.934;2023-07-24T00:05:32;19.20;99.90
5176;DHT22;2607;50.934;6.934;2023-07-24T00:07:57;19.20;99.90
5176;DHT22;2607;50.934;6.934;2023-07-24T00:10:23;19.20;99.90
5176;DHT22;2607;50.934;6.934;2023-07-24T00:12:49;19.20;99.90
5176;DHT22;2607;50.934;6.934;2023-07-24T00:15:14;19.10;99.90
5176;DHT22;2607;50.934;6.934;2023-07-24T00:17:40;19.10;99.90
5176;DHT22;2607;50.934;6.934;2023-07-24T00:20:06;19.10;99.90
5176;DHT22;2607;50.934;6.934;2023-07-24T00:22:32;19.10;99.90
5176;DHT22;2607;50.934;6.934;2023-07-24T00:24:57;19.10;99.90
5176;DHT22;2607;50.934;6.934;2023-07-24T00:27:23;19.10;99.90
5176;DHT22;2607;50.934;6.934;2023-07-24T00:29:48;19.10;99.90
5176;DHT22;2607;50.934;6.934;2023-07-24T00:32:14;19.00;99.90
5176;DHT22;2607;50.934;6.934;2023-07-24T00:34:39;19.10;99.90
5176;DHT22;2607;50.934;6.934;2023-07-24T00:37:05;19.10;99.90
5176;DHT22;2607;50.934;6.934;2023-07-24T00:39:31;19.00;99.90
5176;DHT22;2607;50.934;6.934;2023-07-24T00:41:56;19.00;99.90
5176;DHT22;2607;50.934;6.934;2023-07-24T00:44:22;19.00;99.90
5176;DHT22;2607;50.934;6.934;2023-07-24T00:46:47;19.00;99.90
5176;DHT22;2607;50.934;6.934;2023-07-24T00:49:13;19.00;99.90
5176;DHT22;2607;50.934;6.934;2023-07-24T00:51:39;19.00;99.90
5176;DHT22;2607;50.934;6.934;2023-07-24T00:54:06;19.00;99.90
5176;DHT22;2607;50.934;6.934;2023-07-24T00:56:32;18.90;99.90
5176;DHT22;2607;50.934;6.934;2023-07-24T00:58:58;18.90;99.90
5176;DHT22;2607;50.934;6.934;2023-07-24T01:01:25;18.90;99.90
5176;DHT22;2607;50.934;6.934;2023-07-24T01:03:51;18.90;99.90
5176;DHT22;2607;50.934;6.934;2023-07-24T01:06:17;18.80;99.90
5176;DHT22;2607;50.934;6.934;2023-07-24T01:08:43;18.90;99.90
5176;DHT22;2607;50.934;6.934;2023-07-24T01:11:25;18.80;99.90
5176;DHT22;2607;50.934;6.934;2023-07-24T01:14:04;18.80;99.90
5176;DHT22;2607;50.934;6.934;2023-07-24T01:16:41;18.80;99.90
5176;DHT22;2607;50.934;6.934;2023-07-24T01:19:40;18.80;99.90
5176;DHT22;2607;50.934;6.934;2023-07-24T01:25:31;18.80;99.90
5176;DHT22;2607;50.934;6.934;2023-07-24T01:27:57;18.70;99.90
5176;DHT22;2607;50.934;6.934;2023-07-24T01:30:22;18.70;99.90
5176;DHT22;2607;50.934;6.934;2023-07-24T01:32:48;18.70;99.90
5176;DHT22;2607;50.934;6.934;2023-07-24T01:35:14;18.70;99.90
5176;DHT22;2607;50.934;6.934;2023-07-24T01:37:40;18.70;99.90
5176;DHT22;2607;50.934;6.934;2023-07-24T01:40:07;18.70;99.90
5176;DHT22;2607;50.934;6.934;2023-07-24T01:42:34;18.70;99.90
5176;DHT22;2607;50.934;6.934;2023-07-24T01:45:02;18.70;99.90
5176;DHT22;2607;50.934;6.934;2023-07-24T01:47:29;18.70;99.90
5176;DHT22;2607;50.934;6.934;2023-07-24T01:49:55;18.70;99.90
5176;DHT22;2607;50.934;6.934;2023-07-24T01:52:21;18.70;99.90
5176;DHT22;2607;50.934;6.934;2023-07-24T01:54:47;18.80;99.90
5176;DHT22;2607;50.934;6.934;2023-07-24T01:57:12;18.70;99.90
5176;DHT22;2607;50.934;6.934;2023-07-24T01:59:38;18.70;99.90
5176;DHT22;2607;50.934;6.934;2023-07-24T02:02:04;18.80;99.90
5176;DHT22;2607;50.934;6.934;2023-07-24T02:04:29;18.80;99.90
5176;DHT22;2607;50.934;6.934;2023-07-24T02:06:55;18.80;99.90
5176;DHT22;2607;50.934;6.934;2023-07-24T02:09:20;18.80;99.90
5176;DHT22;2607;50.934;6.934;2023-07-24T02:11:46;18.80;99.90
5176;DHT22;2607;50.934;6.934;2023-07-24T02:14:13;18.90;99.90
5176;DHT22;2607;50.934;6.934;2023-07-24T02:16:39;18.90;99.90
5176;DHT22;2607;50.934;6.934;2023-07-24T02:19:05;18.90;99.90
5176;DHT22;2607;50.934;6.934;2023-07-24T02:21:31;18.90;99.90
5176;DHT22;2607;50.934;6.934;2023-07-24T02:23:57;18.80;99.90
5176;DHT22;2607;50.934;6.934;2023-07-24T02:26:22;18.80;99.90
5176;DHT22;2607;50.934;6.934;2023-07-24T02:28:48;18.80;99.90
5176;DHT22;2607;50.934;6.934;2023-07-24T02:31:13;18.80;99.90
5176;DHT22;2607;50.934;6.934;2023-07-24T02:33:39;18.70;99.90
5176;DHT22;2607;50.934;6.934;2023-07-24T02:36:04;18.70;99.90
5176;DHT22;2607;50.934;6.934;2023-07-24T02:38:30;18.70;99.90
5176;DHT22;2607;50.934;6.934;2023-07-24T02:40:56;18.70;99.90
5176;DHT22;2607;50.934;6.934;2023-07-24T02:43:22;18.70;99.90
5176;DHT22;2607;50.934;6.934;2023-07-24T02:45:47;18.70;99.90
5176;DHT22;2607;50.934;6.934;2023-07-24T02:48:13;18.60;99.90
5176;DHT22;2607;50.934;6.934;2023-07-24T02:50:38;18.60;99.90
5176;DHT22;2607;50.934;6.934;2023-07-24T02:53:04;18.60;99.90
5176;DHT22;2607;50.934;6.934;2023-07-24T02:55:30;18.60;99.90
5176;DHT22;2607;50.934;6.934;2023-07-24T02:57:55;18.60;99.90
5176;DHT22;2607;50.934;6.934;2023-07-24T03:00:21;18.60;99.90
5176;DHT22;2607;50.934;6.934;2023-07-24T03:02:46;18.60;99.90
5176;DHT22;2607;50.934;6.934;2023-07-24T03:05:12;18.60;99.90
5176;DHT22;2607;50.934;6.934;2023-07-24T03:07:38;18.60;99.90
5176;DHT22;2607;50.934;6.934;2023-07-24T03:10:06;18.60;99.90
5176;DHT22;2607;50.934;6.934;2023-07-24T03:12:33;18.60;99.90
5176;DHT22;2607;50.934;6.934;2023-07-24T03:14:58;18.60;99.90
5176;DHT22;2607;50.934;6.934;2023-07-24T03:17:24;18.60;99.90
5176;DHT22;2607;50.934;6.934;2023-07-24T03:19:49;18.60;99.90
5176;DHT22;2607;50.934;6.934;2023-07-24T03:22:15;18.60;99.90
5176;DHT22;2607;50.934;6.934;2023-07-24T03:24:41;18.60;99.90
5176;DHT22;2607;50.934;6.934;2023-07-24T03:27:06;18.60;99.90
5176;DHT22;2607;50.934;6.934;2023-07-24T03:29:32;18.60;99.90
5176;DHT22;2607;50.934;6.934;2023-07-24T03:31:58;18.60;99.90
5176;DHT22;2607;50.934;6.934;2023-07-24T03:34:23;18.60;99.90
5176;DHT22;2607;50.934;6.934;2023-07-24T03:36:49;18.60;99.90
5176;DHT22;2607;50.934;6.934;2023-07-24T03:39:15;18.60;99.90
5176;DHT22;2607;50.934;6.934;2023-07-24T03:41:41;18.50;99.90
5176;DHT22;2607;50.934;6.934;2023-07-24T03:44:07;18.60;99.90
5176;DHT22;2607;50.934;6.934;2023-07-24T03:46:33;18.50;99.90
5176;DHT22;2607;50.934;6.934;2023-07-24T03:48:58;18.50;99.90
5176;DHT22;2607;50.934;6.934;2023-07-24T03:51:24;18.60;99.90
5176;DHT22;2607;50.934;6.934;2023-07-24T03:53:49;18.60;99.90
5176;DHT22;2607;50.934;6.934;2023-07-24T03:56:15;18.60;99.90
5176;DHT22;2607;50.934;6.934;2023-07-24T03:58:41;18.60;99.90
5176;DHT22;2607;50.934;6.934;2023-07-24T04:01:07;18.60;99.90
5176;DHT22;2607;50.934;6.934;2023-07-24T04:03:33;18.60;99.90
5176;DHT22;2607;50.934;6.934;2023-07-24T04:05:59;18.60;99.90
5176;DHT22;2607;50.934;6.934;2023-07-24T04:08:24;18.60;99.90
5176;DHT22;2607;50.934;6.934;2023-07-24T04:10:50;18.60;99.90
5176;DHT22;2607;50.934;6.934;2023-07-24T04:13:15;18.60;99.90
5176;DHT22;2607;50.934;6.934;2023-07-24T04:15:41;18.60;99.90
5176;DHT22;2607;50.934;6.934;2023-07-24T04:18:07;18.60;99.90
5176;DHT22;2607;50.934;6.934;2023-07-24T04:20:32;18.60;99.90
5176;DHT22;2607;50.934;6.934;2023-07-24T04:22:58;18.60;99.90
5176;DHT22;2607;50.934;6.934;2023-07-24T04:25:23;18.60;99.90
5176;DHT22;2607;50.934;6.934;2023-07-24T04:27:49;18.60;99.90
5176;DHT22;2607;50.934;6.934;2023-07-24T04:30:14;18.60;99.90
5176;DHT22;2607;50.934;6.934;2023-07-24T04:32:40;18.60;99.90
5176;DHT22;2607;50.934;6.934;2023-07-24T04:35:06;18.60;99.90
5176;DHT22;2607;50.934;6.934;2023-07-24T04:37:32;18.50;99.90
5176;DHT22;2607;50.934;6.934;2023-07-24T04:39:57;18.60;99.90
5176;DHT22;2607;50.934;6.934;2023-07-24T04:42:23;18.60;99.90
5176;DHT22;2607;50.934;6.934;2023-07-24T04:44:48;18.60;99.90
5176;DHT22;2607;50.934;6.934;2023-07-24T04:47:15;18.60;99.90
5176;DHT22;2607;50.934;6.934;2023-07-24T04:49:41;18.60;99.90
5176;DHT22;2607;50.934;6.934;2023-07-24T04:52:06;18.60;99.90
5176;DHT22;2607;50.934;6.934;2023-07-24T04:54:32;18.60;99.90
5176;DHT22;2607;50.934;6.934;2023-07-24T04:56:58;18.60;99.90
5176;DHT22;2607;50.934;6.934;2023-07-24T04:59:24;18.60;99.90
5176;DHT22;2607;50.934;6.934;2023-07-24T05:01:49;18.60;99.90
5176;DHT22;2607;50.934;6.934;2023-07-24T05:04:15;18.60;99.90
5176;DHT22;2607;50.934;6.934;2023-07-24T05:06:41;18.60;99.90
5176;DHT22;2607;50.934;6.934;2023-07-24T05:09:06;18.70;99.90
5176;DHT22;2607;50.934;6.934;2023-07-24T05:11:32;18.70;99.90
5176;DHT22;2607;50.934;6.934;2023-07-24T05:13:57;18.70;99.90
5176;DHT22;2607;50.934;6.934;2023-07-24T05:16:23;18.70;99.90
5176;DHT22;2607;50.934;6.934;2023-07-24T05:18:48;18.80;99.90
5176;DHT22;2607;50.934;6.934;2023-07-24T05:21:14;18.80;99.90
5176;DHT22;2607;50.934;6.934;2023-07-24T05:23:39;18.80;99.90
5176;DHT22;2607;50.934;6.934;2023-07-24T05:26:05;18.90;99.90
5176;DHT22;2607;50.934;6.934;2023-07-24T05:28:31;19.00;99.90
5176;DHT22;2607;50.934;6.934;2023-07-24T05:31:01;19.00;99.90
5176;DHT22;2607;50.934;6.934;2023-07-24T05:33:28;19.10;99.90
5176;DHT22;2607;50.934;6.934;2023-07-24T05:36:01;19.10;99.90
5176;DHT22;2607;50.934;6.934;2023-07-24T05:38:27;19.20;99.90
5176;DHT22;2607;50.934;6.934;2023-07-24T05:41:00;19.20;99.90
5176;DHT22;2607;50.934;6.934;2023-07-24T05:43:27;19.20;99.90
5176;DHT22;2607;50.934;6.934;2023-07-24T05:45:53;19.10;99.90
5176;DHT22;2607;50.934;6.934;2023-07-24T05:48:19;19.20;99.90
5176;DHT22;2607;50.934;6.934;2023-07-24T05:50:45;19.20;99.90
5176;DHT22;2607;50.934;6.934;2023-07-24T05:53:10;19.20;99.90
5176;DHT22;2607;50.934;6.934;2023-07-24T05:55:36;19.20;99.90
5176;DHT22;2607;50.934;6.934;2023-07-24T05:58:01;19.20;99.90
5176;DHT22;2607;50.934;6.934;2023-07-24T06:00:27;19.20;99.90
5176;DHT22;2607;50.934;6.934;2023-07-24T06:02:53;19.20;99.90
5176;DHT22;2607;50.934;6.934;2023-07-24T06:05:18;19.20;99.90
5176;DHT22;2607;50.934;6.934;2023-07-24T06:07:45;19.30;99.90
5176;DHT22;2607;50.934;6.934;2023-07-24T06:10:11;19.30;99.90
5176;DHT22;2607;50.934;6.934;2023-07-24T06:12:36;19.40;99.90
5176;DHT22;2607;50.934;6.934;2023-07-24T06:15:02;19.50;99.90
5176;DHT22;2607;50.934;6.934;2023-07-24T06:17:28;19.50;99.90
5176;DHT22;2607;50.934;6.934;2023-07-24T06:19:54;19.60;99.90
5176;DHT22;2607;50.934;6.934;2023-07-24T06:22:19;19.60;99.90
5176;DHT22;2607;50.934;6.934;2023-07-24T06:24:45;19.60;99.90
5176;DHT22;2607;50.934;6.934;2023-07-24T06:27:10;19.60;99.90
5176;DHT22;2607;50.934;6.934;2023-07-24T06:29:36;19.60;99.90
5176;DHT22;2607;50.934;6.934;2023-07-24T06:32:02;19.60;99.90
5176;DHT22;2607;50.934;6.934;2023-07-24T06:34:28;19.60;99.90
5176;DHT22;2607;50.934;6.934;2023-07-24T06:36:53;19.70;99.90
5176;DHT22;2607;50.934;6.934;2023-07-24T06:39:19;19.70;99.90
5176;DHT22;2607;50.934;6.934;2023-07-24T06:41:45;19.80;99.90
5176;DHT22;2607;50.934;6.934;2023-07-24T06:44:11;19.80;99.90
5176;DHT22;2607;50.934;6.934;2023-07-24T06:46:37;19.80;99.90
5176;DHT22;2607;50.934;6.934;2023-07-24T06:49:02;19.80;99.90
5176;DHT22;2607;50.934;6.934;2023-07-24T06:51:28;19.80;99.90
5176;DHT22;2607;50.934;6.934;2023-07-24T06:53:53;19.80;99.90
5176;DHT22;2607;50.934;6.934;2023-07-24T06:56:19;19.80;99.90
5176;DHT22;2607;50.934;6.934;2023-07-24T06:58:44;19.80;99.90
5176;DHT22;2607;50.934;6.934;2023-07-24T07:01:10;19.80;99.90
5176;DHT22;2607;50.934;6.934;2023-07-24T07:03:35;19.90;99.90
5176;DHT22;2607;50.934;6.934;2023-07-24T07:06:01;19.90;99.90
5176;DHT22;2607;50.934;6.934;2023-07-24T07:08:30;20.00;99.90
5176;DHT22;2607;50.934;6.934;2023-07-24T07:11:00;20.10;99.90
5176;DHT22;2607;50.934;6.934;2023-07-24T07:13:26;20.20;99.90
5176;DHT22;2607;50.934;6.934;2023-07-24T07:15:51;20.20;99.90
5176;DHT22;2607;50.934;6.934;2023-07-24T07:18:17;20.10;99.90
5176;DHT22;2607;50.934;6.934;2023-07-24T07:20:46;20.10;99.90
5176;DHT22;2607;50.934;6.934;2023-07-24T07:23:12;20.10;99.90
5176;DHT22;2607;50.934;6.934;2023-07-24T07:25:38;20.10;99.90
5176;DHT22;2607;50.934;6.934;2023-07-24T07:28:03;20.10;99.90
5176;DHT22;2607;50.934;6.934;2023-07-24T07:30:29;20.10;99.90
5176;DHT22;2607;50.934;6.934;2023-07-24T07:32:55;20.10;99.90
5176;DHT22;2607;50.934;6.934;2023-07-24T07:35:20;20.10;99.90
5176;DHT22;2607;50.934;6.934;2023-07-24T07:37:46;20.00;99.90
5176;DHT22;2607;50.934;6.934;2023-07-24T07:40:11;20.00;99.90
5176;DHT22;2607;50.934;6.934;2023-07-24T07:42:37;20.00;99.90
5176;DHT22;2607;50.934;6.934;2023-07-24T07:45:03;20.10;99.90
5176;DHT22;2607;50.934;6.934;2023-07-24T07:47:28;20.10;99.90
5176;DHT22;2607;50.934;6.934;2023-07-24T07:49:54;20.20;99.90
5176;DHT22;2607;50.934;6.934;2023-07-24T07:52:20;20.30;99.90
5176;DHT22;2607;50.934;6.934;2023-07-24T07:54:50;20.30;99.90
5176;DHT22;2607;50.934;6.934;2023-07-24T07:57:16;20.40;99.90
5176;DHT22;2607;50.934;6.934;2023-07-24T07:59:42;20.40;99.90
5176;DHT22;2607;50.934;6.934;2023-07-24T08:02:07;20.50;99.90
5176;DHT22;2607;50.934;6.934;2023-07-24T08:04:33;20.50;99.90
5176;DHT22;2607;50.934;6.934;2023-07-24T08:06:59;20.50;99.90
5176;DHT22;2607;50.934;6.934;2023-07-24T08:09:24;20.50;99.90
5176;DHT22;2607;50.934;6.934;2023-07-24T08:11:51;20.60;99.90
5176;DHT22;2607;50.934;6.934;2023-07-24T08:14:17;20.70;99.90
5176;DHT22;2607;50.934;6.934;2023-07-24T08:16:43;20.80;99.90
5176;DHT22;2607;50.934;6.934;2023-07-24T08:19:08;20.80;99.90
5176;DHT22;2607;50.934;6.934;2023-07-24T08:21:34;20.90;99.90
5176;DHT22;2607;50.934;6.934;2023-07-24T08:24:00;20.90;99.90
5176;DHT22;2607;50.934;6.934;2023-07-24T08:26:27;20.90;99.90
5176;DHT22;2607;50.934;6.934;2023-07-24T08:28:53;20.90;99.90
5176;DHT22;2607;50.934;6.934;2023-07-24T08:31:18;20.90;99.90
5176;DHT22;2607;50.934;6.934;2023-07-24T08:33:44;20.80;99.90
5176;DHT22;2607;50.934;6.934;2023-07-24T08:36:10;20.80;99.90
5176;DHT22;2607;50.934;6.934;2023-07-24T08:38:38;20.80;99.90
5176;DHT22;2607;50.934;6.934;2023-07-24T08:41:11;20.80;99.90
5176;DHT22;2607;50.934;6.934;2023-07-24T08:43:39;20.80;99.90
5176;DHT22;2607;50.934;6.934;2023-07-24T08:46:06;20.90;99.90
5176;DHT22;2607;50.934;6.934;2023-07-24T08:48:33;20.90;99.90
5176;DHT22;2607;50.934;6.934;2023-07-24T08:51:04;21.00;99.90
5176;DHT22;2607;50.934;6.934;2023-07-24T08:53:30;21.10;99.90
5176;DHT22;2607;50.934;6.934;2023-07-24T08:55:59;21.20;99.90
5176;DHT22;2607;50.934;6.934;2023-07-24T08:58:25;21.30;99.90
5176;DHT22;2607;50.934;6.934;2023-07-24T09:00:50;21.50;99.90
5176;DHT22;2607;50.934;6.934;2023-07-24T09:03:18;21.60;99.90
5176;DHT22;2607;50.934;6.934;2023-07-24T09:05:44;21.70;99.90
5176;DHT22;2607;50.934;6.934;2023-07-24T09:08:10;21.80;99.90
5176;DHT22;2607;50.934;6.934;2023-07-24T09:10:36;21.80;99.90
5176;DHT22;2607;50.934;6.934;2023-07-24T09:13:02;21.80;99.90
5176;DHT22;2607;50.934;6.934;2023-07-24T09:15:39;21.80;99.90
5176;DHT22;2607;50.934;6.934;2023-07-24T09:18:04;21.90;99.90
5176;DHT22;2607;50.934;6.934;2023-07-24T09:20:39;21.80;99.90
5176;DHT22;2607;50.934;6.934;2023-07-24T09:23:05;21.90;99.90
5176;DHT22;2607;50.934;6.934;2023-07-24T09:25:31;21.90;99.90
5176;DHT22;2607;50.934;6.934;2023-07-24T09:27:58;21.90;99.90
5176;DHT22;2607;50.934;6.934;2023-07-24T09:30:24;21.80;99.90
5176;DHT22;2607;50.934;6.934;2023-07-24T09:32:53;21.80;99.90
5176;DHT22;2607;50.934;6.934;2023-07-24T09:35:20;21.70;99.90
5176;DHT22;2607;50.934;6.934;2023-07-24T09:37:46;21.60;99.90
5176;DHT22;2607;50.934;6.934;2023-07-24T09:40:14;21.60;99.90
5176;DHT22;2607;50.934;6.934;2023-07-24T09:42:39;21.60;99.90
5176;DHT22;2607;50.934;6.934;2023-07-24T09:45:08;21.60;99.90
5176;DHT22;2607;50.934;6.934;2023-07-24T09:47:34;21.60;99.90
5176;DHT22;2607;50.934;6.934;2023-07-24T09:50:03;21.60;99.90
5176;DHT22;2607;50.934;6.934;2023-07-24T09:52:30;21.60;99.90
5176;DHT22;2607;50.934;6.934;2023-07-24T09:55:10;21.60;99.90
5176;DHT22;2607;50.934;6.934;2023-07-24T09:57:36;21.70;99.90
5176;DHT22;2607;50.934;6.934;2023-07-24T10:00:02;21.80;99.90
5176;DHT22;2607;50.934;6.934;2023-07-24T10:02:28;21.90;99.90
5176;DHT22;2607;50.934;6.934;2023-07-24T10:04:55;21.90;99.90
5176;DHT22;2607;50.934;6.934;2023-07-24T10:07:22;22.00;99.90
5176;DHT22;2607;50.934;6.934;2023-07-24T10:09:49;22.10;99.90
5176;DHT22;2607;50.934;6.934;2023-07-24T10:12:17;22.10;99.90
5176;DHT22;2607;50.934;6.934;2023-07-24T10:14:45;22.10;99.90
5176;DHT22;2607;50.934;6.934;2023-07-24T10:17:11;22.20;99.90
5176;DHT22;2607;50.934;6.934;2023-07-24T10:19:40;22.30;99.90
5176;DHT22;2607;50.934;6.934;2023-07-24T10:22:06;22.40;99.90
5176;DHT22;2607;50.934;6.934;2023-07-24T10:24:33;22.60;99.90
5176;DHT22;2607;50.934;6.934;2023-07-24T10:26:59;22.70;99.90
5176;DHT22;2607;50.934;6.934;2023-07-24T10:29:25;22.80;99.90
5176;DHT22;2607;50.934;6.934;2023-07-24T10:31:54;22.90;99.90
5176;DHT22;2607;50.934;6.934;2023-07-24T10:34:20;22.90;99.90
5176;DHT22;2607;50.934;6.934;2023-07-24T10:36:46;23.00;99.90
5176;DHT22;2607;50.934;6.934;2023-07-24T10:39:16;23.00;99.90
5176;DHT22;2607;50.934;6.934;2023-07-24T10:41:44;23.10;99.90
5176;DHT22;2607;50.934;6.934;2023-07-24T10:44:11;23.20;99.90
5176;DHT22;2607;50.934;6.934;2023-07-24T10:46:41;23.20;99.60
5176;DHT22;2607;50.934;6.934;2023-07-24T10:49:08;23.20;99.60
5176;DHT22;2607;50.934;6.934;2023-07-24T10:51:34;23.10;99.70
5176;DHT22;2607;50.934;6.934;2023-07-24T10:54:03;23.00;99.90
5176;DHT22;2607;50.934;6.934;2023-07-24T10:56:29;23.00;99.90
5176;DHT22;2607;50.934;6.934;2023-07-24T10:58:54;22.90;99.90
5176;DHT22;2607;50.934;6.934;2023-07-24T11:01:20;22.90;99.90
5176;DHT22;2607;50.934;6.934;2023-07-24T11:03:46;22.80;99.90
5176;DHT22;2607;50.934;6.934;2023-07-24T11:06:19;22.70;99.90
5176;DHT22;2607;50.934;6.934;2023-07-24T11:08:54;22.60;99.90
5176;DHT22;2607;50.934;6.934;2023-07-24T11:11:22;22.50;99.90
5176;DHT22;2607;50.934;6.934;2023-07-24T11:13:49;22.60;99.90
5176;DHT22;2607;50.934;6.934;2023-07-24T11:16:14;22.60;99.90
5176;DHT22;2607;50.934;6.934;2023-07-24T11:18:50;22.60;99.90
5176;DHT22;2607;50.934;6.934;2023-07-24T11:21:17;22.70;99.90
5176;DHT22;2607;50.934;6.934;2023-07-24T11:23:54;22.80;99.90
5176;DHT22;2607;50.934;6.934;2023-07-24T11:26:24;22.90;99.90
5176;DHT22;2607;50.934;6.934;2023-07-24T11:28:51;22.80;99.90
5176;DHT22;2607;50.934;6.934;2023-07-24T11:31:17;22.80;99.90
5176;DHT22;2607;50.934;6.934;2023-07-24T11:33:49;23.00;99.90
5176;DHT22;2607;50.934;6.934;2023-07-24T11:36:15;23.10;99.90
5176;DHT22;2607;50.934;6.934;2023-07-24T11:38:41;23.30;99.90
5176;DHT22;2607;50.934;6.934;2023-07-24T11:41:08;23.30;99.90
5176;DHT22;2607;50.934;6.934;2023-07-24T11:43:34;23.30;99.90
5176;DHT22;2607;50.934;6.934;2023-07-24T11:45:59;23.10;99.90
5176;DHT22;2607;50.934;6.934;2023-07-24T11:48:25;22.70;99.90
5176;DHT22;2607;50.934;6.934;2023-07-24T11:50:52;22.20;99.90
5176;DHT22;2607;50.934;6.934;2023-07-24T11:53:23;21.70;99.90
5176;DHT22;2607;50.934;6.934;2023-07-24T11:55:50;21.30;99.90
5176;DHT22;2607;50.934;6.934;2023-07-24T11:58:16;20.90;99.90
5176;DHT22;2607;50.934;6.934;2023-07-24T12:00:42;20.70;99.90
5176;DHT22;2607;50.934;6.934;2023-07-24T12:03:08;20.40;99.90
5176;DHT22;2607;50.934;6.934;2023-07-24T12:05:44;20.20;99.90
5176;DHT22;2607;50.934;6.934;2023-07-24T12:08:10;20.10;99.90
5176;DHT22;2607;50.934;6.934;2023-07-24T12:10:37;20.00;99.90
5176;DHT22;2607;50.934;6.934;2023-07-24T12:13:03;19.90;99.90
5176;DHT22;2607;50.934;6.934;2023-07-24T12:15:29;19.90;99.90
5176;DHT22;2607;50.934;6.934;2023-07-24T12:17:55;20.00;99.90
5176;DHT22;2607;50.934;6.934;2023-07-24T12:20:22;20.00;99.90
5176;DHT22;2607;50.934;6.934;2023-07-24T12:22:48;20.00;99.90
5176;DHT22;2607;50.934;6.934;2023-07-24T12:25:13;20.10;99.90
5176;DHT22;2607;50.934;6.934;2023-07-24T12:27:39;20.00;99.90
5176;DHT22;2607;50.934;6.934;2023-07-24T12:30:07;20.00;99.90
5176;DHT22;2607;50.934;6.934;2023-07-24T12:32:32;19.90;99.90
5176;DHT22;2607;50.934;6.934;2023-07-24T12:34:58;19.90;99.90
5176;DHT22;2607;50.934;6.934;2023-07-24T12:37:23;19.80;99.90
5176;DHT22;2607;50.934;6.934;2023-07-24T12:39:49;19.90;99.90
5176;DHT22;2607;50.934;6.934;2023-07-24T12:42:15;19.80;99.90
5176;DHT22;2607;50.934;6.934;2023-07-24T12:44:42;19.80;99.90
5176;DHT22;2607;50.934;6.934;2023-07-24T12:47:08;19.80;99.90
5176;DHT22;2607;50.934;6.934;2023-07-24T12:49:34;19.70;99.90
5176;DHT22;2607;50.934;6.934;2023-07-24T12:51:59;19.60;99.90
5176;DHT22;2607;50.934;6.934;2023-07-24T12:54:25;19.60;99.90
5176;DHT22;2607;50.934;6.934;2023-07-24T12:56:51;19.50;99.90
5176;DHT22;2607;50.934;6.934;2023-07-24T12:59:20;19.40;99.90
5176;DHT22;2607;50.934;6.934;2023-07-24T13:01:45;19.40;99.90
5176;DHT22;2607;50.934;6.934;2023-07-24T13:04:11;19.30;99.90
5176;DHT22;2607;50.934;6.934;2023-07-24T13:06:37;19.30;99.90
5176;DHT22;2607;50.934;6.934;2023-07-24T13:09:03;19.20;99.90
5176;DHT22;2607;50.934;6.934;2023-07-24T13:11:29;19.20;99.90
5176;DHT22;2607;50.934;6.934;2023-07-24T13:13:55;19.20;99.90
5176;DHT22;2607;50.934;6.934;2023-07-24T13:16:21;19.30;99.90
5176;DHT22;2607;50.934;6.934;2023-07-24T13:18:47;19.50;99.90
5176;DHT22;2607;50.934;6.934;2023-07-24T13:21:12;19.60;99.90
5176;DHT22;2607;50.934;6.934;2023-07-24T13:23:39;19.70;99.90
5176;DHT22;2607;50.934;6.934;2023-07-24T13:26:05;19.70;99.90
5176;DHT22;2607;50.934;6.934;2023-07-24T13:28:33;19.80;99.90
5176;DHT22;2607;50.934;6.934;2023-07-24T13:30:58;19.80;99.90
5176;DHT22;2607;50.934;6.934;2023-07-24T13:33:24;19.90;99.90
5176;DHT22;2607;50.934;6.934;2023-07-24T13:35:49;20.00;99.90
5176;DHT22;2607;50.934;6.934;2023-07-24T13:38:16;20.10;99.90
5176;DHT22;2607;50.934;6.934;2023-07-24T13:40:42;20.20;99.90
5176;DHT22;2607;50.934;6.934;2023-07-24T13:43:08;20.20;99.90
5176;DHT22;2607;50.934;6.934;2023-07-24T13:45:33;20.20;99.90
5176;DHT22;2607;50.934;6.934;2023-07-24T13:47:59;20.20;99.90
5176;DHT22;2607;50.934;6.934;2023-07-24T13:50:25;20.20;99.90
5176;DHT22;2607;50.934;6.934;2023-07-24T13:52:50;20.20;99.90
5176;DHT22;2607;50.934;6.934;2023-07-24T13:55:16;20.10;99.90
5176;DHT22;2607;50.934;6.934;2023-07-24T13:57:42;20.10;99.90
5176;DHT22;2607;50.934;6.934;2023-07-24T14:00:07;20.00;99.90
5176;DHT22;2607;50.934;6.934;2023-07-24T14:02:33;19.90;99.90
5176;DHT22;2607;50.934;6.934;2023-07-24T14:04:59;19.80;99.90
5176;DHT22;2607;50.934;6.934;2023-07-24T14:07:24;19.70;99.90
5176;DHT22;2607;50.934;6.934;2023-07-24T14:09:50;19.60;99.90
5176;DHT22;2607;50.934;6.934;2023-07-24T14:12:15;19.50;99.90
5176;DHT22;2607;50.934;6.934;2023-07-24T14:14:41;19.50;99.90
5176;DHT22;2607;50.934;6.934;2023-07-24T14:17:07;19.50;99.90
5176;DHT22;2607;50.934;6.934;2023-07-24T14:19:32;19.40;99.90
5176;DHT22;2607;50.934;6.934;2023-07-24T14:21:58;19.40;99.90
5176;DHT22;2607;50.934;6.934;2023-07-24T14:24:23;19.40;99.90
5176;DHT22;2607;50.934;6.934;2023-07-24T14:26:49;19.40;99.90
5176;DHT22;2607;50.934;6.934;2023-07-24T14:29:15;19.30;99.90
5176;DHT22;2607;50.934;6.934;2023-07-24T14:31:44;19.20;99.90
5176;DHT22;2607;50.934;6.934;2023-07-24T14:34:10;19.20;99.90
5176;DHT22;2607;50.934;6.934;2023-07-24T14:36:38;19.10;99.90
5176;DHT22;2607;50.934;6.934;2023-07-24T14:39:04;19.10;99.90
5176;DHT22;2607;50.934;6.934;2023-07-24T14:41:29;19.10;99.90
5176;DHT22;2607;50.934;6.934;2023-07-24T14:43:55;19.20;99.90
5176;DHT22;2607;50.934;6.934;2023-07-24T14:46:21;19.20;99.90
5176;DHT22;2607;50.934;6.934;2023-07-24T14:48:46;19.10;99.90
5176;DHT22;2607;50.934;6.934;2023-07-24T14:51:12;19.20;99.90
5176;DHT22;2607;50.934;6.934;2023-07-24T14:53:37;19.20;99.90
5176;DHT22;2607;50.934;6.934;2023-07-24T14:56:04;19.20;99.90
5176;DHT22;2607;50.934;6.934;2023-07-24T14:58:29;19.30;99.90
5176;DHT22;2607;50.934;6.934;2023-07-24T15:00:55;19.40;99.90
5176;DHT22;2607;50.934;6.934;2023-07-24T15:03:22;19.40;99.90
5176;DHT22;2607;50.934;6.934;2023-07-24T15:05:47;19.50;99.90
5176;DHT22;2607;50.934;6.934;2023-07-24T15:08:13;19.50;99.90
5176;DHT22;2607;50.934;6.934;2023-07-24T15:10:39;19.40;99.90
5176;DHT22;2607;50.934;6.934;2023-07-24T15:13:04;19.50;99.90
5176;DHT22;2607;50.934;6.934;2023-07-24T15:15:30;19.50;99.90
5176;DHT22;2607;50.934;6.934;2023-07-24T15:17:57;19.50;99.90
5176;DHT22;2607;50.934;6.934;2023-07-24T15:20:22;19.50;99.90
5176;DHT22;2607;50.934;6.934;2023-07-24T15:22:48;19.60;99.90
5176;DHT22;2607;50.934;6.934;2023-07-24T15:25:14;19.60;99.90
5176;DHT22;2607;50.934;6.934;2023-07-24T15:27:40;19.60;99.90
5176;DHT22;2607;50.934;6.934;2023-07-24T15:30:06;19.60;99.90
5176;DHT22;2607;50.934;6.934;2023-07-24T15:32:31;19.60;99.90
5176;DHT22;2607;50.934;6.934;2023-07-24T15:34:57;19.50;99.90
5176;DHT22;2607;50.934;6.934;2023-07-24T15:37:22;19.50;99.90
5176;DHT22;2607;50.934;6.934;2023-07-24T15:39:49;19.40;99.90
5176;DHT22;2607;50.934;6.934;2023-07-24T15:42:14;19.40;99.90
5176;DHT22;2607;50.934;6.934;2023-07-24T15:44:40;19.30;99.90
5176;DHT22;2607;50.934;6.934;2023-07-24T15:47:06;19.30;99.90
5176;DHT22;2607;50.934;6.934;2023-07-24T15:49:31;19.30;99.90
5176;DHT22;2607;50.934;6.934;2023-07-24T15:51:57;19.30;99.90
5176;DHT22;2607;50.934;6.934;2023-07-24T15:54:22;19.30;99.90
5176;DHT22;2607;50.934;6.934;2023-07-24T15:56:48;19.30;99.90
5176;DHT22;2607;50.934;6.934;2023-07-24T15:59:13;19.20;99.90